createdAt,value
2023-04-08T00:01:01.046Z,102268.28
2023-04-08T00:03:29.433Z,102272.75
2023-04-08T00:05:56.416Z,102273.06
2023-04-08T00:08:23.330Z,102271.91
2023-04-08T00:10:50.359Z,102278.03
2023-04-08T00:13:17.248Z,102277.22
2023-04-08T00:15:44.313Z,102271.91
2023-04-08T00:18:11.408Z,102277.88
2023-04-08T00:20:39.676Z,102283.53
2023-04-08T00:23:06.812Z,102281.72
2023-04-08T00:25:33.796Z,102286.56
2023-04-08T00:28:00.750Z,102282.91
2023-04-08T00:30:28.125Z,102280.94
2023-04-08T00:32:55.698Z,102282.28
2023-04-08T00:35:23.044Z,102294.22
2023-04-08T00:37:51.744Z,102295.88
2023-04-08T00:40:19.078Z,102291.41
2023-04-08T00:42:46.060Z,102287.25
2023-04-08T00:45:14.389Z,102287.59
2023-04-08T00:47:41.554Z,102293.19
2023-04-08T00:50:10.794Z,102288.50
2023-04-08T00:52:37.869Z,102287.81
2023-04-08T00:55:07.646Z,102287.81
2023-04-08T00:57:34.804Z,102286.84
2023-04-08T01:00:02.232Z,102287.16
2023-04-08T01:02:39.204Z,102286.47
2023-04-08T01:05:13.310Z,102283.00
2023-04-08T01:07:46.824Z,102280.53
2023-04-08T01:10:19.119Z,102279.19
2023-04-08T01:12:54.450Z,102278.47
2023-04-08T01:15:22.224Z,102279.84
2023-04-08T01:17:54.477Z,102289.13
2023-04-08T01:20:23.937Z,102292.59
2023-04-08T01:23:10.585Z,102292.25
2023-04-08T01:25:39.805Z,102287.78
2023-04-08T01:28:12.994Z,102288.63
2023-04-08T01:30:42.508Z,102290.81
2023-04-08T01:33:13.491Z,102290.47
2023-04-08T01:35:40.943Z,102296.13
2023-04-08T01:38:14.015Z,102294.53
2023-04-08T01:40:42.327Z,102289.59
2023-04-08T01:43:13.385Z,102288.28
2023-04-08T01:45:40.385Z,102290.50
2023-04-08T01:48:08.429Z,102297.25
2023-04-08T01:50:36.354Z,102297.63
2023-04-08T01:53:05.986Z,102305.94
2023-04-08T01:55:33.303Z,102302.00
2023-04-08T01:58:01.433Z,102296.38
2023-04-08T02:00:32.106Z,102292.75
2023-04-08T02:03:02.168Z,102296.06
2023-04-08T02:05:29.302Z,102301.19
2023-04-08T02:07:56.218Z,102304.19
2023-04-08T02:10:23.171Z,102299.50
2023-04-08T02:12:50.347Z,102299.00
2023-04-08T02:15:17.514Z,102297.31
2023-04-08T02:17:50.912Z,102305.94
2023-04-08T02:20:22.117Z,102300.34
2023-04-08T02:22:56.304Z,102298.66
2023-04-08T02:25:26.104Z,102300.34
2023-04-08T02:27:55.714Z,102296.72
2023-04-08T02:30:26.437Z,102302.97
2023-04-08T02:32:56.936Z,102299.50
2023-04-08T02:35:24.784Z,102303.94
2023-04-08T02:37:52.158Z,102309.25
2023-04-08T02:40:28.193Z,102301.47
2023-04-08T02:42:56.345Z,102300.63
2023-04-08T02:45:27.346Z,102302.63
2023-04-08T02:47:55.994Z,102301.63
2023-04-08T02:50:23.210Z,102297.31
2023-04-08T02:52:50.147Z,102298.75
2023-04-08T02:55:17.352Z,102298.25
2023-04-08T02:57:44.315Z,102301.09
2023-04-08T03:00:13.256Z,102299.91
2023-04-08T03:02:40.243Z,102299.59
2023-04-08T03:05:09.781Z,102294.69
2023-04-08T03:07:36.879Z,102298.16
2023-04-08T03:10:05.055Z,102301.94
2023-04-08T03:12:32.887Z,102302.91
2023-04-08T03:15:00.898Z,102297.13
2023-04-08T03:17:27.872Z,102304.69
2023-04-08T03:19:54.892Z,102309.47
2023-04-08T03:22:24.301Z,102316.13
2023-04-08T03:24:51.377Z,102307.72
2023-04-08T03:27:18.290Z,102308.53
2023-04-08T03:29:46.512Z,102305.72
2023-04-08T03:32:13.853Z,102312.16
2023-04-08T03:34:41.117Z,102312.16
2023-04-08T03:37:08.459Z,102322.75
2023-04-08T03:39:36.766Z,102315.47
2023-04-08T03:42:03.907Z,102309.88
2023-04-08T03:44:30.949Z,102315.19
2023-04-08T03:46:57.977Z,102311.22
2023-04-08T03:49:24.924Z,102305.09
2023-04-08T03:51:51.789Z,102304.44
2023-04-08T03:54:18.844Z,102306.56
2023-04-08T03:56:47.100Z,102312.47
2023-04-08T03:59:14.003Z,102305.53
2023-04-08T04:01:41.936Z,102310.81
2023-04-08T04:04:09.208Z,102311.13
2023-04-08T04:06:36.287Z,102314.75
2023-04-08T04:09:03.412Z,102309.63
2023-04-08T04:11:30.298Z,102307.94
2023-04-08T04:13:58.514Z,102325.34
2023-04-08T04:16:25.469Z,102325.03
2023-04-08T04:18:54.015Z,102319.13
2023-04-08T04:21:21.453Z,102329.91
2023-04-08T04:23:48.345Z,102325.28
2023-04-08T04:26:15.442Z,102323.47
2023-04-08T04:28:42.409Z,102324.16
2023-04-08T04:31:19.418Z,102334.91
2023-04-08T04:33:47.288Z,102331.13
2023-04-08T04:36:14.337Z,102327.47
2023-04-08T04:38:42.748Z,102328.97
2023-04-08T04:41:09.822Z,102344.56
2023-04-08T04:43:36.931Z,102343.06
2023-04-08T04:46:07.006Z,102344.44
2023-04-08T04:48:35.646Z,102346.75
2023-04-08T04:51:07.328Z,102339.66
2023-04-08T04:53:34.431Z,102348.44
2023-04-08T04:56:01.792Z,102342.97
2023-04-08T04:58:29.365Z,102349.09
2023-04-08T05:00:56.468Z,102349.09
2023-04-08T05:03:23.600Z,102355.38
2023-04-08T05:05:53.784Z,102351.91
2023-04-08T05:08:21.722Z,102353.41
2023-04-08T05:10:51.738Z,102350.75
2023-04-08T05:13:19.086Z,102356.06
2023-04-08T05:15:46.342Z,102359.38
2023-04-08T05:18:13.983Z,102360.34
2023-04-08T05:20:41.089Z,102359.19
2023-04-08T05:23:09.449Z,102363.94
2023-04-08T05:25:36.480Z,102368.56
2023-04-08T05:28:03.873Z,102366.75
2023-04-08T05:30:31.351Z,102366.59
2023-04-08T05:33:00.333Z,102361.16
2023-04-08T05:35:27.805Z,102375.88
2023-04-08T05:37:56.105Z,102369.44
2023-04-08T05:40:24.593Z,102363.84
2023-04-08T05:42:51.504Z,102373.94
2023-04-08T05:45:18.734Z,102365.41
2023-04-08T05:47:45.840Z,102364.63
2023-04-08T05:50:13.001Z,102374.41
2023-04-08T05:52:43.830Z,102376.28
2023-04-08T05:55:11.267Z,102378.44
2023-04-08T05:57:39.908Z,102383.09
2023-04-08T06:00:09.984Z,102378.56
2023-04-08T06:02:37.841Z,102385.00
2023-04-08T06:05:06.074Z,102388.44
2023-04-08T06:07:33.841Z,102400.31
2023-04-08T06:10:00.909Z,102395.72
2023-04-08T06:12:27.934Z,102393.63
2023-04-08T06:14:56.685Z,102399.56
2023-04-08T06:17:23.964Z,102407.50
2023-04-08T06:19:50.957Z,102400.91
2023-04-08T06:22:17.916Z,102411.19
2023-04-08T06:24:46.955Z,102410.19
2023-04-08T06:27:13.962Z,102417.09
2023-04-08T06:29:42.961Z,102413.03
2023-04-08T06:32:11.673Z,102410.53
2023-04-08T06:34:38.841Z,102421.63
2023-04-08T06:37:06.368Z,102426.50
2023-04-08T06:39:34.035Z,102424.34
2023-04-08T06:42:01.437Z,102436.91
2023-04-08T06:44:28.506Z,102439.72
2023-04-08T06:46:55.976Z,102445.38
2023-04-08T06:49:24.373Z,102447.34
2023-04-08T06:51:51.921Z,102448.84
2023-04-08T06:54:18.864Z,102448.75
2023-04-08T06:56:45.827Z,102452.00
2023-04-08T06:59:12.815Z,102456.38
2023-04-08T07:01:39.732Z,102464.00
2023-04-08T07:04:06.726Z,102466.28
2023-04-08T07:06:35.088Z,102463.59
2023-04-08T07:09:01.946Z,102473.50
2023-04-08T07:11:29.148Z,102469.19
2023-04-08T07:13:56.192Z,102466.53
2023-04-08T07:16:23.227Z,102469.53
2023-04-08T07:18:51.718Z,102464.63
2023-04-08T07:21:18.998Z,102466.97
2023-04-08T07:23:47.192Z,102467.78
2023-04-08T07:26:16.178Z,102466.13
2023-04-08T07:28:43.565Z,102464.81
2023-04-08T07:31:13.443Z,102467.38
2023-04-08T07:33:40.763Z,102469.41
2023-04-08T07:36:09.297Z,102469.66
2023-04-08T07:38:36.496Z,102468.88
2023-04-08T07:41:05.724Z,102474.88
2023-04-08T07:43:34.428Z,102474.25
2023-04-08T07:46:04.925Z,102476.56
2023-04-08T07:48:33.201Z,102480.41
2023-04-08T07:51:10.216Z,102476.63
2023-04-08T07:53:40.202Z,102476.44
2023-04-08T07:56:13.699Z,102478.59
2023-04-08T07:58:41.805Z,102465.41
2023-04-08T08:01:17.929Z,102472.03
2023-04-08T08:03:45.857Z,102474.81
2023-04-08T08:06:13.084Z,102473.66
2023-04-08T08:08:40.485Z,102480.84
2023-04-08T08:11:07.795Z,102478.72
2023-04-08T08:13:36.346Z,102480.75
2023-04-08T08:16:03.420Z,102483.09
2023-04-08T08:18:30.654Z,102477.13
2023-04-08T08:20:57.622Z,102477.97
2023-04-08T08:23:24.733Z,102485.78
2023-04-08T08:25:59.963Z,102491.28
2023-04-08T08:28:27.316Z,102494.81
2023-04-08T08:30:55.709Z,102486.53
2023-04-08T08:33:22.764Z,102488.03
2023-04-08T08:35:49.810Z,102493.81
2023-04-08T08:38:17.592Z,102493.81
2023-04-08T08:40:45.586Z,102487.00
2023-04-08T08:43:12.850Z,102494.97
2023-04-08T08:45:40.991Z,102499.13
2023-04-08T08:48:09.650Z,102499.13
2023-04-08T08:50:36.782Z,102502.44
2023-04-08T08:53:04.042Z,102498.50
2023-04-08T08:55:56.831Z,102508.44
2023-04-08T08:58:20.905Z,102503.97
2023-04-08T09:00:47.842Z,102515.09
2023-04-08T09:03:21.806Z,102512.94
2023-04-08T09:05:52.017Z,102514.09
2023-04-08T09:08:27.615Z,102512.91
2023-04-08T09:10:55.673Z,102520.72
2023-04-08T09:13:26.409Z,102524.72
2023-04-08T09:16:05.470Z,102527.38
2023-04-08T09:18:34.249Z,102531.03
2023-04-08T09:21:02.197Z,102527.22
2023-04-08T09:23:40.922Z,102530.69
2023-04-08T09:26:10.389Z,102532.00
2023-04-08T09:28:38.889Z,102533.50
2023-04-08T09:31:23.324Z,102538.31
2023-04-08T09:33:55.314Z,102541.50
2023-04-08T09:36:22.625Z,102539.00
2023-04-08T09:38:49.545Z,102543.31
2023-04-08T09:41:18.068Z,102542.81
2023-04-08T09:43:50.412Z,102545.97
2023-04-08T09:46:25.837Z,102546.63
2023-04-08T09:49:06.894Z,102551.28
2023-04-08T09:51:44.765Z,102545.78
2023-04-08T09:54:15.526Z,102547.28
2023-04-08T09:56:54.690Z,102544.66
2023-04-08T09:59:27.974Z,102547.47
2023-04-08T10:02:01.295Z,102546.94
2023-04-08T10:04:35.648Z,102545.31
2023-04-08T10:07:08.556Z,102546.28
2023-04-08T10:09:38.434Z,102544.13
2023-04-08T10:12:06.084Z,102545.97
2023-04-08T10:14:33.173Z,102543.63
2023-04-08T10:17:28.452Z,102536.97
2023-04-08T10:19:58.610Z,102542.59
2023-04-08T10:22:48.579Z,102549.91
2023-04-08T10:25:32.894Z,102547.59
2023-04-08T10:28:01.507Z,102552.25
2023-04-08T10:30:45.606Z,102553.59
2023-04-08T10:33:15.458Z,102558.25
2023-04-08T10:35:48.454Z,102556.94
2023-04-08T10:38:17.505Z,102558.91
2023-04-08T10:40:45.848Z,102561.41
2023-04-08T10:43:14.896Z,102563.91
2023-04-08T10:45:44.768Z,102563.06
2023-04-08T10:48:17.697Z,102569.88
2023-04-08T10:50:54.844Z,102566.22
2023-04-08T10:53:28.118Z,102572.06
2023-04-08T10:55:55.463Z,102564.22
2023-04-08T10:58:22.573Z,102556.94
2023-04-08T11:00:49.561Z,102559.91
2023-04-08T11:03:16.923Z,102554.09
2023-04-08T11:05:46.927Z,102565.88
2023-04-08T11:08:15.650Z,102558.59
2023-04-08T11:10:44.859Z,102567.56
2023-04-08T11:13:12.763Z,102558.09
2023-04-08T11:15:39.815Z,102551.94
2023-04-08T11:18:07.175Z,102556.59
2023-04-08T11:20:38.188Z,102552.78
2023-04-08T11:23:05.157Z,102556.28
2023-04-08T11:25:33.750Z,102547.59
2023-04-08T11:28:01.343Z,102548.56
2023-04-08T11:30:29.943Z,102551.88
2023-04-08T11:32:57.817Z,102554.16
2023-04-08T11:35:29.930Z,102554.16
2023-04-08T11:37:58.114Z,102547.84
2023-04-08T11:40:26.237Z,102551.31
2023-04-08T11:42:54.715Z,102553.94
2023-04-08T11:45:22.551Z,102556.09
2023-04-08T11:47:49.896Z,102559.78
2023-04-08T11:50:24.751Z,102560.44
2023-04-08T11:52:53.406Z,102561.44
2023-04-08T11:55:25.893Z,102555.31
2023-04-08T11:57:56.954Z,102554.28
2023-04-08T12:00:24.423Z,102556.41
2023-04-08T12:02:52.906Z,102557.09
2023-04-08T12:05:21.147Z,102564.25
2023-04-08T12:07:48.328Z,102558.63
2023-04-08T12:10:15.432Z,102564.31
2023-04-08T12:12:42.366Z,102559.53
2023-04-08T12:15:11.652Z,102553.69
2023-04-08T12:17:38.889Z,102561.88
2023-04-08T12:20:07.606Z,102558.56
2023-04-08T12:22:34.519Z,102553.69
2023-04-08T12:25:03.539Z,102565.16
2023-04-08T12:27:33.331Z,102561.81
2023-04-08T12:30:00.925Z,102560.78
2023-04-08T12:32:29.604Z,102557.13
2023-04-08T12:34:56.847Z,102553.28
2023-04-08T12:37:24.229Z,102560.09
2023-04-08T12:39:51.522Z,102565.75
2023-04-08T12:42:18.514Z,102561.13
2023-04-08T12:44:45.550Z,102566.78
2023-04-08T12:47:12.911Z,102564.31
2023-04-08T12:52:11.097Z,102566.16
2023-04-08T12:54:38.208Z,102568.16
2023-04-08T12:57:05.367Z,102567.50
2023-04-08T12:59:33.446Z,102567.84
2023-04-08T13:02:00.611Z,102565.88
2023-04-08T13:04:27.705Z,102562.19
2023-04-08T13:06:57.037Z,102567.03
2023-04-08T13:09:24.045Z,102565.56
2023-04-08T13:11:51.378Z,102562.38
2023-04-08T13:14:18.437Z,102563.50
2023-04-08T13:16:46.185Z,102561.16
2023-04-08T13:19:13.447Z,102558.00
2023-04-08T13:21:40.514Z,102565.13
2023-04-08T13:24:08.800Z,102557.47
2023-04-08T13:26:35.923Z,102557.47
2023-04-08T13:29:03.082Z,102556.63
2023-04-08T13:31:30.282Z,102561.47
2023-04-08T13:33:58.410Z,102562.13
2023-04-08T13:36:26.771Z,102563.81
2023-04-08T13:38:56.962Z,102562.13
2023-04-08T13:41:26.099Z,102564.66
2023-04-08T13:43:53.605Z,102557.31
2023-04-08T13:46:20.844Z,102558.16
2023-04-08T13:48:47.965Z,102559.16
2023-04-08T13:51:14.991Z,102568.16
2023-04-08T13:53:42.112Z,102566.28
2023-04-08T13:56:09.234Z,102561.81
2023-04-08T13:58:37.717Z,102563.81
2023-04-08T14:01:05.564Z,102560.16
2023-04-08T14:03:32.524Z,102556.81
2023-04-08T14:06:01.547Z,102551.47
2023-04-08T14:08:28.804Z,102551.94
2023-04-08T14:10:56.908Z,102552.13
2023-04-08T14:13:23.919Z,102553.09
2023-04-08T14:15:54.838Z,102549.47
2023-04-08T14:18:22.021Z,102554.06
2023-04-08T14:20:48.987Z,102551.53
2023-04-08T14:23:16.815Z,102563.69
2023-04-08T14:25:44.139Z,102567.34
2023-04-08T14:28:11.401Z,102560.72
2023-04-08T14:30:38.518Z,102556.09
2023-04-08T14:33:07.108Z,102566.59
2023-04-08T14:35:34.366Z,102563.28
2023-04-08T14:38:01.547Z,102567.78
2023-04-08T14:40:28.603Z,102570.75
2023-04-08T14:42:55.874Z,102556.16
2023-04-08T14:45:22.885Z,102563.81
2023-04-08T14:47:50.030Z,102566.47
2023-04-08T14:50:19.490Z,102565.50
2023-04-08T14:52:48.447Z,102560.97
2023-04-08T14:55:15.584Z,102560.16
2023-04-08T14:57:42.550Z,102563.81
2023-04-08T15:00:10.825Z,102557.50
2023-04-08T15:02:37.825Z,102560.50
2023-04-08T15:05:06.254Z,102551.50
2023-04-08T15:07:34.962Z,102569.13
2023-04-08T15:10:02.270Z,102551.50
2023-04-08T15:12:29.327Z,102561.81
2023-04-08T15:14:57.274Z,102564.78
2023-04-08T15:17:31.625Z,102568.75
2023-04-08T15:20:02.227Z,102562.78
2023-04-08T15:22:41.140Z,102562.13
2023-04-08T15:25:10.545Z,102561.47
2023-04-08T15:27:37.575Z,102552.84
2023-04-08T15:30:08.893Z,102559.00
2023-04-08T15:32:37.133Z,102560.16
2023-04-08T15:35:04.899Z,102554.84
2023-04-08T15:37:31.913Z,102558.50
2023-04-08T15:40:00.275Z,102555.19
2023-04-08T15:42:27.655Z,102558.00
2023-04-08T15:44:54.601Z,102553.88
2023-04-08T15:47:21.846Z,102557.53
2023-04-08T15:49:48.896Z,102562.19
2023-04-08T15:52:16.701Z,102563.19
2023-04-08T15:54:43.721Z,102562.53
2023-04-08T15:57:12.314Z,102564.34
2023-04-08T15:59:39.277Z,102561.16
2023-04-08T16:02:06.732Z,102562.84
2023-04-08T16:04:33.801Z,102557.03
2023-04-08T16:07:00.970Z,102565.00
2023-04-08T16:09:28.142Z,102563.03
2023-04-08T16:11:55.117Z,102561.66
2023-04-08T16:14:23.507Z,102567.47
2023-04-08T16:16:51.833Z,102568.31
2023-04-08T16:19:18.920Z,102569.66
2023-04-08T16:21:46.157Z,102567.84
2023-04-08T16:24:13.071Z,102563.88
2023-04-08T16:26:40.860Z,102569.53
2023-04-08T16:29:08.319Z,102572.50
2023-04-08T16:31:39.308Z,102574.50
2023-04-08T16:34:06.251Z,102576.69
2023-04-08T16:36:34.287Z,102581.50
2023-04-08T16:39:01.399Z,102585.50
2023-04-08T16:41:28.406Z,102576.03
2023-04-08T16:43:55.462Z,102577.22
2023-04-08T16:46:22.839Z,102576.69
2023-04-08T16:48:51.304Z,102568.22
2023-04-08T16:51:18.632Z,102577.69
2023-04-08T16:53:45.955Z,102580.50
2023-04-08T16:56:14.297Z,102570.22
2023-04-08T16:58:41.447Z,102568.88
2023-04-08T17:01:08.909Z,102587.63
2023-04-08T17:03:37.560Z,102578.84
2023-04-08T17:06:13.539Z,102578.53
2023-04-08T17:08:43.556Z,102588.81
2023-04-08T17:11:13.496Z,102585.50
2023-04-08T17:13:42.461Z,102587.47
2023-04-08T17:16:13.304Z,102591.13
2023-04-08T17:18:40.929Z,102592.47
2023-04-08T17:21:09.557Z,102586.47
2023-04-08T17:23:36.630Z,102595.44
2023-04-08T17:26:12.771Z,102604.56
2023-04-08T17:28:39.842Z,102597.09
2023-04-08T17:31:06.911Z,102610.53
2023-04-08T17:33:34.209Z,102608.38
2023-04-08T17:36:01.457Z,102606.69
2023-04-08T17:38:29.915Z,102609.34
2023-04-08T17:40:56.833Z,102608.88
2023-04-08T17:43:23.803Z,102609.50
2023-04-08T17:45:51.479Z,102614.31
2023-04-08T17:48:18.692Z,102611.97
2023-04-08T17:50:45.830Z,102606.84
2023-04-08T17:53:12.737Z,102604.00
2023-04-08T17:55:41.030Z,102604.34
2023-04-08T17:58:08.014Z,102606.31
2023-04-08T18:00:34.941Z,102610.47
2023-04-08T18:03:02.046Z,102612.13
2023-04-08T18:05:30.060Z,102620.53
2023-04-08T18:07:58.630Z,102623.53
2023-04-08T18:10:25.682Z,102618.50
2023-04-08T18:13:00.621Z,102624.28
2023-04-08T18:15:35.957Z,102628.88
2023-04-08T18:18:07.212Z,102626.38
2023-04-08T18:20:53.549Z,102621.69
2023-04-08T18:23:33.225Z,102630.31
2023-04-08T18:26:05.497Z,102628.50
2023-04-08T18:29:00.810Z,102631.28
2023-04-08T18:31:29.883Z,102640.59
2023-04-08T18:33:57.553Z,102642.25
2023-04-08T18:36:24.549Z,102643.25
2023-04-08T18:38:51.778Z,102647.56
2023-04-08T18:41:20.761Z,102649.84
2023-04-08T18:43:49.156Z,102660.78
2023-04-08T18:46:16.288Z,102651.47
2023-04-08T18:48:43.214Z,102655.78
2023-04-08T18:51:10.115Z,102655.94
2023-04-08T18:53:37.229Z,102662.06
2023-04-08T18:56:04.802Z,102667.06
2023-04-08T18:58:32.090Z,102669.56
2023-04-08T19:01:00.374Z,102669.25
2023-04-08T19:03:27.460Z,102669.44
2023-04-08T19:05:55.359Z,102676.38
2023-04-08T19:08:22.329Z,102675.41
2023-04-08T19:10:49.207Z,102680.72
2023-04-08T19:13:16.074Z,102678.91
2023-04-08T19:15:43.039Z,102672.06
2023-04-08T19:18:11.433Z,102674.06
2023-04-08T19:20:38.507Z,102678.53
2023-04-08T19:23:05.982Z,102678.66
2023-04-08T19:25:33.456Z,102681.66
2023-04-08T19:28:00.446Z,102682.47
2023-04-08T19:30:27.382Z,102686.63
2023-04-08T19:32:54.373Z,102683.00
2023-04-08T19:35:22.937Z,102685.47
2023-04-08T19:37:49.898Z,102688.28
2023-04-08T19:40:16.766Z,102682.03
2023-04-08T19:42:44.731Z,102675.69
2023-04-08T19:45:11.945Z,102679.03
2023-04-08T19:47:43.104Z,102682.22
2023-04-08T19:50:12.061Z,102674.94
2023-04-08T19:52:40.352Z,102685.38
2023-04-08T19:55:09.928Z,102690.38
2023-04-08T19:57:37.084Z,102683.72
2023-04-08T20:00:04.765Z,102683.72
2023-04-08T20:02:31.837Z,102688.34
2023-04-08T20:04:59.121Z,102687.66
2023-04-08T20:07:39.252Z,102688.81
2023-04-08T20:10:10.814Z,102679.38
2023-04-08T20:12:37.935Z,102684.66
2023-04-08T20:15:07.813Z,102682.16
2023-04-08T20:17:36.507Z,102683.00
2023-04-08T20:20:05.298Z,102677.69
2023-04-08T20:22:32.551Z,102687.47
2023-04-08T20:25:00.315Z,102682.16
2023-04-08T20:27:28.841Z,102683.28
2023-04-08T20:29:56.841Z,102679.97
2023-04-08T20:32:23.945Z,102685.28
2023-04-08T20:34:51.335Z,102679.81
2023-04-08T20:37:18.365Z,102678.00
2023-04-08T20:39:45.711Z,102684.97
2023-04-08T20:42:12.699Z,102685.63
2023-04-08T20:44:41.402Z,102684.66
2023-04-08T20:47:09.084Z,102689.13
2023-04-08T20:49:39.943Z,102691.91
2023-04-08T20:52:07.003Z,102684.97
2023-04-08T20:54:33.982Z,102680.66
2023-04-08T20:57:00.983Z,102686.94
2023-04-08T20:59:28.117Z,102687.75
2023-04-08T21:01:56.436Z,102679.97
2023-04-08T21:04:24.444Z,102687.25
2023-04-08T21:06:51.577Z,102681.28
2023-04-08T21:09:18.505Z,102685.91
2023-04-08T21:11:45.407Z,102687.84
2023-04-08T21:14:12.556Z,102688.19
2023-04-08T21:16:42.696Z,102686.50
2023-04-08T21:19:11.136Z,102695.47
2023-04-08T21:21:38.250Z,102687.53
2023-04-08T21:24:06.973Z,102690.84
2023-04-08T21:26:34.039Z,102700.44
2023-04-08T21:29:00.949Z,102687.34
2023-04-08T21:31:28.830Z,102692.50
2023-04-08T21:33:56.127Z,102697.66
2023-04-08T21:36:24.477Z,102697.50
2023-04-08T21:38:51.877Z,102694.84
2023-04-08T21:41:19.004Z,102697.50
2023-04-08T21:43:46.820Z,102696.53
2023-04-08T21:46:13.914Z,102694.84
2023-04-08T21:48:40.838Z,102700.44
2023-04-08T21:51:08.416Z,102695.13
2023-04-08T21:53:37.279Z,102695.97
2023-04-08T21:56:06.616Z,102700.31
2023-04-08T21:58:34.960Z,102695.97
2023-04-08T22:01:02.460Z,102693.50
2023-04-08T22:03:29.668Z,102698.81
2023-04-08T22:05:56.706Z,102698.81
2023-04-08T22:08:23.570Z,102700.44
2023-04-08T22:10:51.857Z,102705.75
2023-04-08T22:13:20.423Z,102700.44
2023-04-08T22:15:47.292Z,102696.28
2023-04-08T22:18:14.207Z,102702.44
2023-04-08T22:20:41.278Z,102697.13
2023-04-08T22:23:08.152Z,102700.78
2023-04-08T22:25:35.339Z,102698.13
2023-04-08T22:28:03.714Z,102696.44
2023-04-08T22:30:30.902Z,102698.25
2023-04-08T22:32:57.908Z,102696.44
2023-04-08T22:35:24.882Z,102700.78
2023-04-08T22:37:51.799Z,102693.78
2023-04-08T22:40:18.991Z,102694.63
2023-04-08T22:42:45.863Z,102685.16
2023-04-08T22:45:14.116Z,102686.13
2023-04-08T22:47:41.144Z,102685.47
2023-04-08T22:50:09.955Z,102692.75
2023-04-08T22:52:37.286Z,102696.38
2023-04-08T22:55:06.278Z,102689.44
2023-04-08T22:57:33.872Z,102686.09
2023-04-08T23:00:02.750Z,102686.41
2023-04-08T23:02:32.311Z,102691.03
2023-04-08T23:04:59.417Z,102684.03
2023-04-08T23:07:26.254Z,102682.53
2023-04-08T23:09:53.376Z,102685.34
2023-04-08T23:12:20.924Z,102684.50
2023-04-08T23:14:48.258Z,102680.88
2023-04-08T23:17:15.285Z,102688.00
2023-04-08T23:19:43.588Z,102683.53
2023-04-08T23:22:10.825Z,102683.53
2023-04-08T23:24:37.743Z,102693.97
2023-04-08T23:27:04.988Z,102685.19
2023-04-08T23:29:31.917Z,102682.53
2023-04-08T23:31:58.821Z,102678.06
2023-04-08T23:34:25.798Z,102676.94
2023-04-08T23:36:54.216Z,102668.97
2023-04-08T23:39:21.325Z,102680.56
2023-04-08T23:41:48.636Z,102686.03
2023-04-08T23:44:15.874Z,102678.06
2023-04-08T23:46:43.039Z,102680.72
2023-04-08T23:49:10.232Z,102678.25
2023-04-08T23:51:38.687Z,102687.31
2023-04-08T23:54:07.032Z,102683.00
2023-04-08T23:56:34.019Z,102679.38
2023-04-08T23:59:01.215Z,102677.56
